sensor_id;sensor_type;location;lat;lon;timestamp;P1;durP1;ratioP1;P2;durP2;ratioP2
21089;SDS011;10703;51.020;6.128;2023-04-25T00:02:23;19.83;;;12.20;;
21089;SDS011;10703;51.020;6.128;2023-04-25T00:04:51;19.73;;;12.27;;
21089;SDS011;10703;51.020;6.128;2023-04-25T00:07:18;25.97;;;12.50;;
21089;SDS011;10703;51.020;6.128;2023-04-25T00:09:45;17.63;;;12.07;;
21089;SDS011;10703;51.020;6.128;2023-04-25T00:12:11;23.93;;;12.97;;
21089;SDS011;10703;51.020;6.128;2023-04-25T00:14:38;19.73;;;12.03;;
21089;SDS011;10703;51.020;6.128;2023-04-25T00:17:05;13.63;;;11.40;;
21089;SDS011;10703;51.020;6.128;2023-04-25T00:19:32;21.13;;;11.97;;
21089;SDS011;10703;51.020;6.128;2023-04-25T00:21:58;26.87;;;12.30;;
21089;SDS011;10703;51.020;6.128;2023-04-25T00:24:25;23.43;;;12.83;;
21089;SDS011;10703;51.020;6.128;2023-04-25T00:26:51;21.30;;;12.00;;
21089;SDS011;10703;51.020;6.128;2023-04-25T00:29:18;25.27;;;13.50;;
21089;SDS011;10703;51.020;6.128;2023-04-25T00:31:44;28.07;;;13.53;;
21089;SDS011;10703;51.020;6.128;2023-04-25T00:34:11;26.23;;;11.90;;
21089;SDS011;10703;51.020;6.128;2023-04-25T00:36:38;18.90;;;11.97;;
21089;SDS011;10703;51.020;6.128;2023-04-25T00:39:04;18.33;;;12.90;;
21089;SDS011;10703;51.020;6.128;2023-04-25T00:41:31;25.57;;;13.43;;
21089;SDS011;10703;51.020;6.128;2023-04-25T00:43:59;21.37;;;12.40;;
21089;SDS011;10703;51.020;6.128;2023-04-25T00:46:26;20.27;;;11.90;;
21089;SDS011;10703;51.020;6.128;2023-04-25T00:48:53;21.40;;;12.60;;
21089;SDS011;10703;51.020;6.128;2023-04-25T00:51:20;22.30;;;12.17;;
21089;SDS011;10703;51.020;6.128;2023-04-25T00:53:47;25.40;;;12.93;;
21089;SDS011;10703;51.020;6.128;2023-04-25T00:56:16;17.73;;;12.47;;
21089;SDS011;10703;51.020;6.128;2023-04-25T00:58:43;25.07;;;14.03;;
21089;SDS011;10703;51.020;6.128;2023-04-25T01:01:10;19.73;;;13.03;;
21089;SDS011;10703;51.020;6.128;2023-04-25T01:03:38;19.60;;;13.23;;
21089;SDS011;10703;51.020;6.128;2023-04-25T01:06:09;25.60;;;12.70;;
21089;SDS011;10703;51.020;6.128;2023-04-25T01:08:39;30.73;;;13.20;;
21089;SDS011;10703;51.020;6.128;2023-04-25T01:11:06;19.57;;;13.17;;
21089;SDS011;10703;51.020;6.128;2023-04-25T01:13:33;29.13;;;12.83;;
21089;SDS011;10703;51.020;6.128;2023-04-25T01:16:00;29.00;;;13.40;;
21089;SDS011;10703;51.020;6.128;2023-04-25T01:18:28;24.73;;;12.87;;
21089;SDS011;10703;51.020;6.128;2023-04-25T01:20:54;19.80;;;12.60;;
21089;SDS011;10703;51.020;6.128;2023-04-25T01:23:21;25.83;;;13.50;;
21089;SDS011;10703;51.020;6.128;2023-04-25T01:25:50;29.07;;;13.80;;
21089;SDS011;10703;51.020;6.128;2023-04-25T01:28:17;24.50;;;13.27;;
21089;SDS011;10703;51.020;6.128;2023-04-25T01:30:44;19.47;;;12.80;;
21089;SDS011;10703;51.020;6.128;2023-04-25T01:33:11;23.27;;;13.10;;
21089;SDS011;10703;51.020;6.128;2023-04-25T01:35:38;22.00;;;13.30;;
21089;SDS011;10703;51.020;6.128;2023-04-25T01:38:06;25.57;;;14.13;;
21089;SDS011;10703;51.020;6.128;2023-04-25T01:40:33;22.90;;;13.27;;
21089;SDS011;10703;51.020;6.128;2023-04-25T01:43:00;26.23;;;13.50;;
21089;SDS011;10703;51.020;6.128;2023-04-25T01:45:27;24.63;;;13.97;;
21089;SDS011;10703;51.020;6.128;2023-04-25T01:47:53;26.60;;;13.60;;
21089;SDS011;10703;51.020;6.128;2023-04-25T01:50:20;26.87;;;14.07;;
21089;SDS011;10703;51.020;6.128;2023-04-25T01:52:48;25.50;;;13.70;;
21089;SDS011;10703;51.020;6.128;2023-04-25T01:55:15;26.77;;;13.57;;
21089;SDS011;10703;51.020;6.128;2023-04-25T01:57:42;25.40;;;13.40;;
21089;SDS011;10703;51.020;6.128;2023-04-25T02:00:08;25.80;;;13.43;;
21089;SDS011;10703;51.020;6.128;2023-04-25T02:02:36;33.60;;;13.60;;
21089;SDS011;10703;51.020;6.128;2023-04-25T02:05:03;23.33;;;13.47;;
21089;SDS011;10703;51.020;6.128;2023-04-25T02:07:30;25.00;;;13.17;;
21089;SDS011;10703;51.020;6.128;2023-04-25T02:09:58;26.20;;;13.13;;
21089;SDS011;10703;51.020;6.128;2023-04-25T02:12:25;28.97;;;14.07;;
21089;SDS011;10703;51.020;6.128;2023-04-25T02:14:53;25.47;;;13.47;;
21089;SDS011;10703;51.020;6.128;2023-04-25T02:17:20;30.63;;;13.57;;
21089;SDS011;10703;51.020;6.128;2023-04-25T02:19:47;33.83;;;13.60;;
21089;SDS011;10703;51.020;6.128;2023-04-25T02:22:14;30.07;;;14.03;;
21089;SDS011;10703;51.020;6.128;2023-04-25T02:24:40;23.33;;;13.63;;
21089;SDS011;10703;51.020;6.128;2023-04-25T02:27:07;34.47;;;14.53;;
21089;SDS011;10703;51.020;6.128;2023-04-25T02:29:34;25.63;;;13.67;;
21089;SDS011;10703;51.020;6.128;2023-04-25T02:32:01;26.03;;;13.60;;
21089;SDS011;10703;51.020;6.128;2023-04-25T02:34:28;21.33;;;13.63;;
21089;SDS011;10703;51.020;6.128;2023-04-25T02:36:54;25.97;;;13.70;;
21089;SDS011;10703;51.020;6.128;2023-04-25T02:39:21;27.53;;;13.93;;
21089;SDS011;10703;51.020;6.128;2023-04-25T02:41:48;23.93;;;14.60;;
21089;SDS011;10703;51.020;6.128;2023-04-25T02:44:14;20.77;;;14.07;;
21089;SDS011;10703;51.020;6.128;2023-04-25T02:46:41;25.77;;;14.30;;
21089;SDS011;10703;51.020;6.128;2023-04-25T02:49:07;23.80;;;14.10;;
21089;SDS011;10703;51.020;6.128;2023-04-25T02:51:34;22.63;;;13.97;;
21089;SDS011;10703;51.020;6.128;2023-04-25T02:54:01;24.40;;;13.83;;
21089;SDS011;10703;51.020;6.128;2023-04-25T02:56:28;25.10;;;13.43;;
21089;SDS011;10703;51.020;6.128;2023-04-25T02:58:54;26.40;;;13.87;;
21089;SDS011;10703;51.020;6.128;2023-04-25T03:01:21;32.20;;;14.00;;
21089;SDS011;10703;51.020;6.128;2023-04-25T03:03:48;25.27;;;13.23;;
21089;SDS011;10703;51.020;6.128;2023-04-25T03:06:15;27.77;;;14.00;;
21089;SDS011;10703;51.020;6.128;2023-04-25T03:08:41;25.00;;;14.40;;
21089;SDS011;10703;51.020;6.128;2023-04-25T03:11:08;24.63;;;13.83;;
21089;SDS011;10703;51.020;6.128;2023-04-25T03:13:36;25.00;;;14.13;;
21089;SDS011;10703;51.020;6.128;2023-04-25T03:16:03;24.27;;;13.67;;
21089;SDS011;10703;51.020;6.128;2023-04-25T03:18:30;29.80;;;14.47;;
21089;SDS011;10703;51.020;6.128;2023-04-25T03:20:56;26.77;;;14.93;;
21089;SDS011;10703;51.020;6.128;2023-04-25T03:23:23;30.20;;;14.20;;
21089;SDS011;10703;51.020;6.128;2023-04-25T03:25:50;22.43;;;12.90;;
21089;SDS011;10703;51.020;6.128;2023-04-25T03:28:17;26.63;;;13.53;;
21089;SDS011;10703;51.020;6.128;2023-04-25T03:30:43;23.93;;;14.17;;
21089;SDS011;10703;51.020;6.128;2023-04-25T03:33:10;25.73;;;13.80;;
21089;SDS011;10703;51.020;6.128;2023-04-25T03:35:37;22.20;;;14.13;;
21089;SDS011;10703;51.020;6.128;2023-04-25T03:38:03;27.93;;;13.70;;
21089;SDS011;10703;51.020;6.128;2023-04-25T03:40:30;26.53;;;13.40;;
21089;SDS011;10703;51.020;6.128;2023-04-25T03:42:57;22.30;;;13.97;;
21089;SDS011;10703;51.020;6.128;2023-04-25T03:45:23;24.33;;;13.27;;
21089;SDS011;10703;51.020;6.128;2023-04-25T03:47:50;30.10;;;13.57;;
21089;SDS011;10703;51.020;6.128;2023-04-25T03:50:17;25.97;;;13.63;;
21089;SDS011;10703;51.020;6.128;2023-04-25T03:52:44;23.23;;;13.73;;
21089;SDS011;10703;51.020;6.128;2023-04-25T03:55:10;32.73;;;14.60;;
21089;SDS011;10703;51.020;6.128;2023-04-25T03:57:37;25.13;;;14.33;;
21089;SDS011;10703;51.020;6.128;2023-04-25T04:00:03;27.60;;;13.73;;
21089;SDS011;10703;51.020;6.128;2023-04-25T04:02:30;27.90;;;14.30;;
21089;SDS011;10703;51.020;6.128;2023-04-25T04:04:59;23.97;;;12.73;;
21089;SDS011;10703;51.020;6.128;2023-04-25T04:07:26;27.57;;;15.30;;
21089;SDS011;10703;51.020;6.128;2023-04-25T04:09:52;28.17;;;13.60;;
21089;SDS011;10703;51.020;6.128;2023-04-25T04:12:19;29.70;;;13.93;;
21089;SDS011;10703;51.020;6.128;2023-04-25T04:14:45;32.07;;;14.63;;
21089;SDS011;10703;51.020;6.128;2023-04-25T04:17:12;29.13;;;13.63;;
21089;SDS011;10703;51.020;6.128;2023-04-25T04:19:38;28.53;;;14.23;;
21089;SDS011;10703;51.020;6.128;2023-04-25T04:22:05;28.00;;;13.70;;
21089;SDS011;10703;51.020;6.128;2023-04-25T04:24:31;24.30;;;13.00;;
21089;SDS011;10703;51.020;6.128;2023-04-25T04:26:58;28.17;;;13.93;;
21089;SDS011;10703;51.020;6.128;2023-04-25T04:29:25;29.63;;;13.13;;
21089;SDS011;10703;51.020;6.128;2023-04-25T04:31:52;39.27;;;13.93;;
21089;SDS011;10703;51.020;6.128;2023-04-25T04:34:19;24.87;;;13.93;;
21089;SDS011;10703;51.020;6.128;2023-04-25T04:36:45;27.40;;;14.20;;
21089;SDS011;10703;51.020;6.128;2023-04-25T04:39:13;26.27;;;14.43;;
21089;SDS011;10703;51.020;6.128;2023-04-25T04:41:40;35.90;;;14.57;;
21089;SDS011;10703;51.020;6.128;2023-04-25T04:44:06;25.70;;;14.23;;
21089;SDS011;10703;51.020;6.128;2023-04-25T04:46:34;30.40;;;14.27;;
21089;SDS011;10703;51.020;6.128;2023-04-25T04:49:11;26.00;;;14.23;;
21089;SDS011;10703;51.020;6.128;2023-04-25T04:51:39;35.80;;;13.93;;
21089;SDS011;10703;51.020;6.128;2023-04-25T04:54:07;36.90;;;15.70;;
21089;SDS011;10703;51.020;6.128;2023-04-25T04:56:33;27.27;;;14.43;;
21089;SDS011;10703;51.020;6.128;2023-04-25T04:59:00;34.93;;;14.53;;
21089;SDS011;10703;51.020;6.128;2023-04-25T05:01:28;27.67;;;13.37;;
21089;SDS011;10703;51.020;6.128;2023-04-25T05:03:56;29.83;;;13.23;;
21089;SDS011;10703;51.020;6.128;2023-04-25T05:06:27;34.60;;;13.27;;
21089;SDS011;10703;51.020;6.128;2023-04-25T05:08:55;30.73;;;12.60;;
21089;SDS011;10703;51.020;6.128;2023-04-25T05:11:23;28.90;;;13.57;;
21089;SDS011;10703;51.020;6.128;2023-04-25T05:13:51;25.03;;;13.23;;
21089;SDS011;10703;51.020;6.128;2023-04-25T05:16:19;29.83;;;13.07;;
21089;SDS011;10703;51.020;6.128;2023-04-25T05:18:46;32.90;;;12.70;;
21089;SDS011;10703;51.020;6.128;2023-04-25T05:21:13;29.23;;;13.80;;
21089;SDS011;10703;51.020;6.128;2023-04-25T05:23:39;22.80;;;14.23;;
21089;SDS011;10703;51.020;6.128;2023-04-25T05:26:06;26.77;;;12.80;;
21089;SDS011;10703;51.020;6.128;2023-04-25T05:28:40;27.30;;;13.33;;
21089;SDS011;10703;51.020;6.128;2023-04-25T05:31:09;35.13;;;14.33;;
21089;SDS011;10703;51.020;6.128;2023-04-25T05:33:36;28.27;;;13.07;;
21089;SDS011;10703;51.020;6.128;2023-04-25T05:36:03;38.77;;;13.37;;
21089;SDS011;10703;51.020;6.128;2023-04-25T05:38:30;26.47;;;12.63;;
21089;SDS011;10703;51.020;6.128;2023-04-25T05:40:59;25.83;;;12.43;;
21089;SDS011;10703;51.020;6.128;2023-04-25T05:43:26;35.03;;;12.93;;
21089;SDS011;10703;51.020;6.128;2023-04-25T05:45:53;43.87;;;13.77;;
21089;SDS011;10703;51.020;6.128;2023-04-25T05:48:20;24.47;;;12.50;;
21089;SDS011;10703;51.020;6.128;2023-04-25T05:50:46;30.57;;;11.00;;
21089;SDS011;10703;51.020;6.128;2023-04-25T05:53:13;35.73;;;12.90;;
21089;SDS011;10703;51.020;6.128;2023-04-25T05:55:40;33.13;;;12.60;;
21089;SDS011;10703;51.020;6.128;2023-04-25T05:58:06;40.70;;;13.53;;
21089;SDS011;10703;51.020;6.128;2023-04-25T06:00:33;30.40;;;11.17;;
21089;SDS011;10703;51.020;6.128;2023-04-25T06:03:00;23.20;;;12.30;;
21089;SDS011;10703;51.020;6.128;2023-04-25T06:05:27;31.70;;;11.67;;
21089;SDS011;10703;51.020;6.128;2023-04-25T06:07:54;22.63;;;12.17;;
21089;SDS011;10703;51.020;6.128;2023-04-25T06:10:21;22.03;;;11.33;;
21089;SDS011;10703;51.020;6.128;2023-04-25T06:12:48;17.80;;;10.23;;
21089;SDS011;10703;51.020;6.128;2023-04-25T06:15:15;15.33;;;11.53;;
21089;SDS011;10703;51.020;6.128;2023-04-25T06:17:53;20.13;;;11.43;;
21089;SDS011;10703;51.020;6.128;2023-04-25T06:20:20;16.27;;;9.83;;
21089;SDS011;10703;51.020;6.128;2023-04-25T06:22:49;24.93;;;11.27;;
21089;SDS011;10703;51.020;6.128;2023-04-25T06:25:17;27.40;;;11.43;;
21089;SDS011;10703;51.020;6.128;2023-04-25T06:27:44;26.17;;;11.50;;
21089;SDS011;10703;51.020;6.128;2023-04-25T06:30:10;21.33;;;9.93;;
21089;SDS011;10703;51.020;6.128;2023-04-25T06:32:38;25.47;;;11.67;;
21089;SDS011;10703;51.020;6.128;2023-04-25T06:35:05;19.50;;;10.70;;
21089;SDS011;10703;51.020;6.128;2023-04-25T06:37:32;15.90;;;9.93;;
21089;SDS011;10703;51.020;6.128;2023-04-25T06:39:59;16.50;;;9.07;;
21089;SDS011;10703;51.020;6.128;2023-04-25T06:42:25;20.87;;;10.20;;
21089;SDS011;10703;51.020;6.128;2023-04-25T06:44:52;17.70;;;9.27;;
21089;SDS011;10703;51.020;6.128;2023-04-25T06:47:18;17.87;;;8.90;;
21089;SDS011;10703;51.020;6.128;2023-04-25T06:49:45;15.90;;;8.73;;
21089;SDS011;10703;51.020;6.128;2023-04-25T06:52:11;17.00;;;8.50;;
21089;SDS011;10703;51.020;6.128;2023-04-25T06:54:38;16.37;;;9.03;;
21089;SDS011;10703;51.020;6.128;2023-04-25T06:57:04;19.23;;;10.13;;
21089;SDS011;10703;51.020;6.128;2023-04-25T06:59:31;20.43;;;9.13;;
21089;SDS011;10703;51.020;6.128;2023-04-25T07:01:58;14.10;;;8.40;;
21089;SDS011;10703;51.020;6.128;2023-04-25T07:04:25;26.40;;;9.70;;
21089;SDS011;10703;51.020;6.128;2023-04-25T07:06:52;24.10;;;8.73;;
21089;SDS011;10703;51.020;6.128;2023-04-25T07:09:19;18.33;;;8.83;;
21089;SDS011;10703;51.020;6.128;2023-04-25T07:11:46;20.83;;;8.90;;
21089;SDS011;10703;51.020;6.128;2023-04-25T07:14:12;25.83;;;9.30;;
21089;SDS011;10703;51.020;6.128;2023-04-25T07:16:39;14.47;;;8.60;;
21089;SDS011;10703;51.020;6.128;2023-04-25T07:19:05;20.37;;;9.80;;
21089;SDS011;10703;51.020;6.128;2023-04-25T07:21:32;12.17;;;8.27;;
21089;SDS011;10703;51.020;6.128;2023-04-25T07:23:59;20.20;;;8.63;;
21089;SDS011;10703;51.020;6.128;2023-04-25T07:26:25;9.80;;;8.47;;
21089;SDS011;10703;51.020;6.128;2023-04-25T07:28:52;18.17;;;7.87;;
21089;SDS011;10703;51.020;6.128;2023-04-25T07:31:21;15.67;;;7.70;;
21089;SDS011;10703;51.020;6.128;2023-04-25T07:33:48;20.43;;;9.20;;
21089;SDS011;10703;51.020;6.128;2023-04-25T07:36:15;8.57;;;7.10;;
21089;SDS011;10703;51.020;6.128;2023-04-25T07:38:42;20.60;;;7.97;;
21089;SDS011;10703;51.020;6.128;2023-04-25T07:41:08;12.83;;;6.90;;
21089;SDS011;10703;51.020;6.128;2023-04-25T07:43:35;14.53;;;7.37;;
21089;SDS011;10703;51.020;6.128;2023-04-25T07:46:02;19.20;;;8.37;;
21089;SDS011;10703;51.020;6.128;2023-04-25T07:48:29;9.97;;;7.00;;
21089;SDS011;10703;51.020;6.128;2023-04-25T07:50:55;19.17;;;8.73;;
21089;SDS011;10703;51.020;6.128;2023-04-25T07:53:22;18.23;;;7.20;;
21089;SDS011;10703;51.020;6.128;2023-04-25T07:55:49;14.07;;;7.90;;
21089;SDS011;10703;51.020;6.128;2023-04-25T07:58:16;15.67;;;7.90;;
21089;SDS011;10703;51.020;6.128;2023-04-25T08:00:47;16.43;;;9.50;;
21089;SDS011;10703;51.020;6.128;2023-04-25T08:03:14;14.97;;;7.87;;
21089;SDS011;10703;51.020;6.128;2023-04-25T08:05:41;9.77;;;7.37;;
21089;SDS011;10703;51.020;6.128;2023-04-25T08:08:08;14.60;;;7.00;;
21089;SDS011;10703;51.020;6.128;2023-04-25T08:10:34;14.77;;;7.90;;
21089;SDS011;10703;51.020;6.128;2023-04-25T08:13:01;12.47;;;7.27;;
21089;SDS011;10703;51.020;6.128;2023-04-25T08:15:28;12.47;;;7.77;;
21089;SDS011;10703;51.020;6.128;2023-04-25T08:17:55;14.67;;;7.47;;
21089;SDS011;10703;51.020;6.128;2023-04-25T08:20:22;14.80;;;7.10;;
21089;SDS011;10703;51.020;6.128;2023-04-25T08:22:49;13.73;;;7.37;;
21089;SDS011;10703;51.020;6.128;2023-04-25T08:25:15;13.23;;;7.00;;
21089;SDS011;10703;51.020;6.128;2023-04-25T08:27:42;12.13;;;6.97;;
21089;SDS011;10703;51.020;6.128;2023-04-25T08:30:09;11.40;;;6.87;;
21089;SDS011;10703;51.020;6.128;2023-04-25T08:32:36;13.07;;;6.57;;
21089;SDS011;10703;51.020;6.128;2023-04-25T08:35:04;16.17;;;7.40;;
21089;SDS011;10703;51.020;6.128;2023-04-25T08:37:32;12.33;;;7.23;;
21089;SDS011;10703;51.020;6.128;2023-04-25T08:39:58;15.27;;;7.20;;
21089;SDS011;10703;51.020;6.128;2023-04-25T08:42:26;12.43;;;7.50;;
21089;SDS011;10703;51.020;6.128;2023-04-25T08:44:53;12.53;;;7.47;;
21089;SDS011;10703;51.020;6.128;2023-04-25T08:47:22;10.03;;;6.77;;
21089;SDS011;10703;51.020;6.128;2023-04-25T08:49:49;13.90;;;7.30;;
21089;SDS011;10703;51.020;6.128;2023-04-25T08:52:19;11.73;;;6.90;;
21089;SDS011;10703;51.020;6.128;2023-04-25T08:54:49;12.30;;;6.43;;
21089;SDS011;10703;51.020;6.128;2023-04-25T08:57:17;10.90;;;6.70;;
21089;SDS011;10703;51.020;6.128;2023-04-25T08:59:45;15.50;;;7.50;;
21089;SDS011;10703;51.020;6.128;2023-04-25T09:02:13;13.87;;;7.37;;
21089;SDS011;10703;51.020;6.128;2023-04-25T09:04:43;11.37;;;6.70;;
21089;SDS011;10703;51.020;6.128;2023-04-25T09:07:10;11.33;;;6.87;;
21089;SDS011;10703;51.020;6.128;2023-04-25T09:09:36;8.60;;;6.23;;
21089;SDS011;10703;51.020;6.128;2023-04-25T09:12:03;11.00;;;6.70;;
21089;SDS011;10703;51.020;6.128;2023-04-25T09:14:31;13.93;;;7.13;;
21089;SDS011;10703;51.020;6.128;2023-04-25T09:16:58;9.03;;;6.33;;
21089;SDS011;10703;51.020;6.128;2023-04-25T09:19:31;14.20;;;7.20;;
21089;SDS011;10703;51.020;6.128;2023-04-25T09:22:02;9.87;;;6.03;;
21089;SDS011;10703;51.020;6.128;2023-04-25T09:27:04;12.97;;;6.70;;
21089;SDS011;10703;51.020;6.128;2023-04-25T09:29:36;15.43;;;6.40;;
21089;SDS011;10703;51.020;6.128;2023-04-25T09:34:46;6.40;;;5.70;;
21089;SDS011;10703;51.020;6.128;2023-04-25T09:37:27;12.57;;;6.40;;
21089;SDS011;10703;51.020;6.128;2023-04-25T09:42:23;10.40;;;5.80;;
21089;SDS011;10703;51.020;6.128;2023-04-25T09:44:52;9.20;;;5.67;;
21089;SDS011;10703;51.020;6.128;2023-04-25T09:47:19;8.53;;;5.93;;
21089;SDS011;10703;51.020;6.128;2023-04-25T09:49:48;12.17;;;5.80;;
21089;SDS011;10703;51.020;6.128;2023-04-25T09:52:20;11.10;;;6.40;;
21089;SDS011;10703;51.020;6.128;2023-04-25T09:54:51;11.13;;;6.43;;
21089;SDS011;10703;51.020;6.128;2023-04-25T09:57:18;11.30;;;5.70;;
21089;SDS011;10703;51.020;6.128;2023-04-25T09:59:55;11.60;;;5.80;;
21089;SDS011;10703;51.020;6.128;2023-04-25T10:02:23;12.13;;;6.37;;
21089;SDS011;10703;51.020;6.128;2023-04-25T10:04:55;7.63;;;5.80;;
21089;SDS011;10703;51.020;6.128;2023-04-25T10:07:23;8.53;;;6.30;;
21089;SDS011;10703;51.020;6.128;2023-04-25T10:09:58;7.70;;;5.73;;
21089;SDS011;10703;51.020;6.128;2023-04-25T10:12:30;14.13;;;6.07;;
21089;SDS011;10703;51.020;6.128;2023-04-25T10:14:58;10.33;;;6.07;;
21089;SDS011;10703;51.020;6.128;2023-04-25T10:17:26;9.67;;;6.13;;
21089;SDS011;10703;51.020;6.128;2023-04-25T10:19:54;13.90;;;6.10;;
21089;SDS011;10703;51.020;6.128;2023-04-25T10:22:34;11.77;;;6.03;;
21089;SDS011;10703;51.020;6.128;2023-04-25T10:25:03;8.33;;;5.70;;
21089;SDS011;10703;51.020;6.128;2023-04-25T10:27:32;11.67;;;5.90;;
21089;SDS011;10703;51.020;6.128;2023-04-25T10:30:00;9.00;;;5.70;;
21089;SDS011;10703;51.020;6.128;2023-04-25T10:32:38;10.83;;;5.60;;
21089;SDS011;10703;51.020;6.128;2023-04-25T10:35:18;10.67;;;6.10;;
21089;SDS011;10703;51.020;6.128;2023-04-25T10:38:05;8.97;;;6.60;;
21089;SDS011;10703;51.020;6.128;2023-04-25T10:40:36;8.93;;;5.90;;
21089;SDS011;10703;51.020;6.128;2023-04-25T10:45:58;9.93;;;5.80;;
21089;SDS011;10703;51.020;6.128;2023-04-25T10:48:27;8.70;;;5.60;;
21089;SDS011;10703;51.020;6.128;2023-04-25T10:51:10;8.50;;;6.20;;
21089;SDS011;10703;51.020;6.128;2023-04-25T10:53:38;8.23;;;5.97;;
21089;SDS011;10703;51.020;6.128;2023-04-25T10:56:17;13.30;;;5.90;;
21089;SDS011;10703;51.020;6.128;2023-04-25T10:58:45;7.77;;;5.50;;
21089;SDS011;10703;51.020;6.128;2023-04-25T11:01:21;6.53;;;5.20;;
21089;SDS011;10703;51.020;6.128;2023-04-25T11:03:56;7.33;;;5.60;;
21089;SDS011;10703;51.020;6.128;2023-04-25T11:09:12;10.10;;;6.10;;
21089;SDS011;10703;51.020;6.128;2023-04-25T11:11:40;6.57;;;5.90;;
21089;SDS011;10703;51.020;6.128;2023-04-25T11:14:06;12.60;;;5.80;;
21089;SDS011;10703;51.020;6.128;2023-04-25T11:16:33;8.67;;;5.43;;
21089;SDS011;10703;51.020;6.128;2023-04-25T11:18:59;8.80;;;5.33;;
21089;SDS011;10703;51.020;6.128;2023-04-25T11:21:26;7.13;;;5.27;;
21089;SDS011;10703;51.020;6.128;2023-04-25T11:23:54;7.67;;;5.10;;
21089;SDS011;10703;51.020;6.128;2023-04-25T11:26:23;9.73;;;5.10;;
21089;SDS011;10703;51.020;6.128;2023-04-25T11:28:51;7.17;;;5.33;;
21089;SDS011;10703;51.020;6.128;2023-04-25T11:31:20;7.97;;;5.47;;
21089;SDS011;10703;51.020;6.128;2023-04-25T11:33:47;7.80;;;5.03;;
21089;SDS011;10703;51.020;6.128;2023-04-25T11:36:14;7.07;;;5.33;;
21089;SDS011;10703;51.020;6.128;2023-04-25T11:38:41;5.20;;;4.70;;
21089;SDS011;10703;51.020;6.128;2023-04-25T11:41:07;9.47;;;5.30;;
21089;SDS011;10703;51.020;6.128;2023-04-25T11:43:34;6.10;;;4.93;;
21089;SDS011;10703;51.020;6.128;2023-04-25T11:46:01;7.23;;;4.83;;
21089;SDS011;10703;51.020;6.128;2023-04-25T11:48:40;7.43;;;5.10;;
21089;SDS011;10703;51.020;6.128;2023-04-25T11:51:07;6.27;;;5.10;;
21089;SDS011;10703;51.020;6.128;2023-04-25T11:53:35;8.33;;;5.30;;
21089;SDS011;10703;51.020;6.128;2023-04-25T11:56:02;6.67;;;5.67;;
21089;SDS011;10703;51.020;6.128;2023-04-25T12:01:29;8.10;;;5.40;;
21089;SDS011;10703;51.020;6.128;2023-04-25T12:07:04;10.37;;;6.27;;
21089;SDS011;10703;51.020;6.128;2023-04-25T12:09:35;9.03;;;5.67;;
21089;SDS011;10703;51.020;6.128;2023-04-25T12:12:02;10.60;;;6.07;;
21089;SDS011;10703;51.020;6.128;2023-04-25T12:14:30;11.30;;;5.93;;
21089;SDS011;10703;51.020;6.128;2023-04-25T12:16:59;9.27;;;6.00;;
21089;SDS011;10703;51.020;6.128;2023-04-25T12:19:31;8.40;;;6.00;;
21089;SDS011;10703;51.020;6.128;2023-04-25T12:22:00;12.67;;;6.23;;
21089;SDS011;10703;51.020;6.128;2023-04-25T12:24:29;11.97;;;6.57;;
21089;SDS011;10703;51.020;6.128;2023-04-25T12:26:59;13.47;;;6.37;;
21089;SDS011;10703;51.020;6.128;2023-04-25T12:29:27;8.23;;;5.47;;
21089;SDS011;10703;51.020;6.128;2023-04-25T12:32:07;7.37;;;5.53;;
21089;SDS011;10703;51.020;6.128;2023-04-25T12:34:34;8.47;;;6.50;;
21089;SDS011;10703;51.020;6.128;2023-04-25T12:37:01;9.23;;;5.30;;
21089;SDS011;10703;51.020;6.128;2023-04-25T12:39:28;12.83;;;5.70;;
21089;SDS011;10703;51.020;6.128;2023-04-25T12:41:55;11.07;;;5.10;;
21089;SDS011;10703;51.020;6.128;2023-04-25T12:44:21;5.67;;;4.87;;
21089;SDS011;10703;51.020;6.128;2023-04-25T12:46:48;6.13;;;5.30;;
21089;SDS011;10703;51.020;6.128;2023-04-25T12:49:15;6.23;;;4.50;;
21089;SDS011;10703;51.020;6.128;2023-04-25T12:51:44;5.03;;;4.47;;
21089;SDS011;10703;51.020;6.128;2023-04-25T12:54:11;5.33;;;4.60;;
21089;SDS011;10703;51.020;6.128;2023-04-25T12:56:38;6.77;;;4.33;;
21089;SDS011;10703;51.020;6.128;2023-04-25T12:59:04;6.80;;;4.50;;
21089;SDS011;10703;51.020;6.128;2023-04-25T13:01:31;6.43;;;4.80;;
21089;SDS011;10703;51.020;6.128;2023-04-25T13:04:01;8.03;;;5.10;;
21089;SDS011;10703;51.020;6.128;2023-04-25T13:06:28;9.00;;;5.07;;
21089;SDS011;10703;51.020;6.128;2023-04-25T13:08:56;5.67;;;4.83;;
21089;SDS011;10703;51.020;6.128;2023-04-25T13:11:22;6.03;;;5.27;;
21089;SDS011;10703;51.020;6.128;2023-04-25T13:13:49;7.27;;;5.90;;
21089;SDS011;10703;51.020;6.128;2023-04-25T13:16:16;6.43;;;5.73;;
21089;SDS011;10703;51.020;6.128;2023-04-25T13:18:43;6.13;;;5.43;;
21089;SDS011;10703;51.020;6.128;2023-04-25T13:21:10;7.53;;;5.87;;
21089;SDS011;10703;51.020;6.128;2023-04-25T13:23:37;7.57;;;6.10;;
21089;SDS011;10703;51.020;6.128;2023-04-25T13:26:04;11.43;;;6.37;;
21089;SDS011;10703;51.020;6.128;2023-04-25T13:28:31;10.13;;;5.40;;
21089;SDS011;10703;51.020;6.128;2023-04-25T13:30:57;9.80;;;5.77;;
21089;SDS011;10703;51.020;6.128;2023-04-25T13:33:25;6.63;;;5.77;;
21089;SDS011;10703;51.020;6.128;2023-04-25T13:35:52;11.03;;;5.43;;
21089;SDS011;10703;51.020;6.128;2023-04-25T13:38:23;7.73;;;5.97;;
21089;SDS011;10703;51.020;6.128;2023-04-25T13:40:50;9.00;;;5.27;;
21089;SDS011;10703;51.020;6.128;2023-04-25T13:43:20;10.60;;;6.20;;
21089;SDS011;10703;51.020;6.128;2023-04-25T13:45:50;5.63;;;5.13;;
21089;SDS011;10703;51.020;6.128;2023-04-25T13:48:18;7.07;;;5.50;;
21089;SDS011;10703;51.020;6.128;2023-04-25T13:50:45;10.67;;;5.63;;
21089;SDS011;10703;51.020;6.128;2023-04-25T13:53:12;5.83;;;5.00;;
21089;SDS011;10703;51.020;6.128;2023-04-25T13:55:38;6.50;;;4.60;;
21089;SDS011;10703;51.020;6.128;2023-04-25T13:58:05;4.97;;;4.47;;
21089;SDS011;10703;51.020;6.128;2023-04-25T14:00:36;8.23;;;4.73;;
21089;SDS011;10703;51.020;6.128;2023-04-25T14:03:04;8.90;;;5.10;;
21089;SDS011;10703;51.020;6.128;2023-04-25T14:05:34;5.17;;;4.40;;
21089;SDS011;10703;51.020;6.128;2023-04-25T14:08:07;4.83;;;4.40;;
21089;SDS011;10703;51.020;6.128;2023-04-25T14:10:35;7.77;;;4.57;;
21089;SDS011;10703;51.020;6.128;2023-04-25T14:13:03;7.77;;;4.83;;
21089;SDS011;10703;51.020;6.128;2023-04-25T14:15:31;4.47;;;4.03;;
21089;SDS011;10703;51.020;6.128;2023-04-25T14:17:58;5.63;;;4.17;;
21089;SDS011;10703;51.020;6.128;2023-04-25T14:20:26;6.18;;;4.35;;
21089;SDS011;10703;51.020;6.128;2023-04-25T14:22:53;6.63;;;3.78;;
21089;SDS011;10703;51.020;6.128;2023-04-25T14:25:22;4.72;;;4.10;;
21089;SDS011;10703;51.020;6.128;2023-04-25T14:27:49;5.72;;;3.85;;
21089;SDS011;10703;51.020;6.128;2023-04-25T14:30:16;5.75;;;3.92;;
21089;SDS011;10703;51.020;6.128;2023-04-25T14:32:44;5.80;;;3.80;;
21089;SDS011;10703;51.020;6.128;2023-04-25T14:35:11;6.70;;;3.97;;
21089;SDS011;10703;51.020;6.128;2023-04-25T14:37:38;4.10;;;3.72;;
21089;SDS011;10703;51.020;6.128;2023-04-25T14:40:05;4.43;;;3.70;;
21089;SDS011;10703;51.020;6.128;2023-04-25T14:42:34;5.30;;;4.00;;
21089;SDS011;10703;51.020;6.128;2023-04-25T14:45:02;6.95;;;3.55;;
21089;SDS011;10703;51.020;6.128;2023-04-25T14:47:29;5.55;;;3.90;;
21089;SDS011;10703;51.020;6.128;2023-04-25T14:49:56;9.32;;;4.25;;
21089;SDS011;10703;51.020;6.128;2023-04-25T14:52:22;8.65;;;4.32;;
21089;SDS011;10703;51.020;6.128;2023-04-25T14:54:49;4.70;;;3.97;;
21089;SDS011;10703;51.020;6.128;2023-04-25T14:57:16;6.13;;;4.00;;